createdAt,value
2023-03-13T00:00:19.272Z,28.23
2023-03-13T00:02:48.800Z,27.17
2023-03-13T00:05:18.252Z,27.02
2023-03-13T00:07:47.572Z,27.00
2023-03-13T00:10:16.899Z,27.42
2023-03-13T00:12:46.083Z,26.52
2023-03-13T00:15:15.616Z,25.80
2023-03-13T00:17:44.849Z,25.45
2023-03-13T00:20:14.717Z,26.92
2023-03-13T00:22:46.660Z,25.70
2023-03-13T00:25:16.441Z,25.60
2023-03-13T00:27:45.745Z,26.65
2023-03-13T00:30:16.229Z,27.00
2023-03-13T00:32:48.180Z,27.48
2023-03-13T00:35:18.530Z,86.38
2023-03-13T00:37:47.949Z,37.17
2023-03-13T00:40:17.238Z,56.70
2023-03-13T00:42:46.409Z,25.08
2023-03-13T00:45:15.765Z,23.40
2023-03-13T00:47:44.957Z,25.80
2023-03-13T00:50:14.166Z,26.77
2023-03-13T00:52:43.692Z,25.50
2023-03-13T00:55:13.306Z,26.45
2023-03-13T00:57:42.548Z,24.20
2023-03-13T01:00:12.781Z,25.20
2023-03-13T01:02:45.885Z,24.42
2023-03-13T01:05:15.332Z,24.35
2023-03-13T01:07:44.559Z,25.13
2023-03-13T01:10:13.979Z,24.10
2023-03-13T01:12:43.176Z,23.92
2023-03-13T01:15:13.086Z,24.95
2023-03-13T01:17:44.736Z,23.80
2023-03-13T01:20:14.597Z,22.52
2023-03-13T01:22:44.802Z,24.63
2023-03-13T01:25:13.966Z,24.23
2023-03-13T01:27:43.121Z,23.05
2023-03-13T01:30:13.406Z,26.23
2023-03-13T01:32:42.632Z,32.40
2023-03-13T01:35:12.010Z,25.50
2023-03-13T01:37:41.429Z,22.33
2023-03-13T01:40:11.701Z,23.20
2023-03-13T01:43:01.830Z,23.15
2023-03-13T01:46:20.689Z,22.75
2023-03-13T01:48:53.075Z,23.40
2023-03-13T01:51:25.092Z,23.33
2023-03-13T01:54:29.905Z,21.30
2023-03-13T01:57:12.491Z,22.42
2023-03-13T02:00:22.156Z,23.33
2023-03-13T02:02:56.781Z,23.48
2023-03-13T02:05:30.320Z,21.50
2023-03-13T02:08:12.232Z,21.13
2023-03-13T02:10:53.861Z,22.00
2023-03-13T02:13:24.276Z,22.55
2023-03-13T02:15:56.898Z,24.02
2023-03-13T02:18:29.093Z,21.13
2023-03-13T02:21:30.878Z,23.95
2023-03-13T02:24:44.744Z,21.05
2023-03-13T02:27:14.737Z,21.13
2023-03-13T02:29:47.933Z,21.80
2023-03-13T02:32:26.601Z,20.08
2023-03-13T02:35:07.898Z,20.38
2023-03-13T02:37:40.388Z,19.98
2023-03-13T02:40:23.287Z,20.60
2023-03-13T02:42:54.911Z,19.83
2023-03-13T02:45:27.193Z,19.52
2023-03-13T02:47:56.444Z,19.45
2023-03-13T02:50:26.229Z,19.20
2023-03-13T02:53:10.534Z,18.95
2023-03-13T02:55:44.096Z,19.73
2023-03-13T02:58:13.204Z,18.88
2023-03-13T03:00:42.515Z,16.80
2023-03-13T03:03:11.614Z,19.35
2023-03-13T03:05:40.717Z,19.75
2023-03-13T03:08:09.845Z,18.13
2023-03-13T03:10:39.514Z,18.23
2023-03-13T03:13:08.843Z,19.75
2023-03-13T03:15:37.953Z,18.20
2023-03-13T03:18:07.161Z,17.45
2023-03-13T03:20:36.260Z,17.58
2023-03-13T03:23:05.427Z,18.10
2023-03-13T03:25:34.702Z,17.65
2023-03-13T03:28:03.877Z,17.35
2023-03-13T03:30:33.010Z,18.20
2023-03-13T03:33:05.187Z,17.77
2023-03-13T03:35:36.464Z,16.73
2023-03-13T03:38:06.284Z,16.63
2023-03-13T03:40:35.581Z,16.35
2023-03-13T03:43:04.852Z,17.80
2023-03-13T03:45:33.957Z,16.45
2023-03-13T03:48:03.131Z,16.48
2023-03-13T03:50:32.250Z,16.38
2023-03-13T03:53:01.342Z,16.15
2023-03-13T03:55:30.567Z,17.63
2023-03-13T03:57:59.776Z,16.00
2023-03-13T04:00:29.049Z,15.10
2023-03-13T04:02:58.246Z,15.43
2023-03-13T04:05:27.458Z,17.23
2023-03-13T04:07:56.840Z,14.43
2023-03-13T04:10:26.020Z,16.13
2023-03-13T04:12:55.182Z,16.50
2023-03-13T04:15:24.377Z,16.17
2023-03-13T04:17:53.577Z,15.15
2023-03-13T04:20:22.935Z,17.67
2023-03-13T04:22:52.323Z,15.75
2023-03-13T04:25:22.379Z,16.02
2023-03-13T04:27:51.906Z,14.38
2023-03-13T04:30:21.209Z,16.35
2023-03-13T04:32:52.081Z,15.25
2023-03-13T04:35:21.493Z,15.48
2023-03-13T04:37:50.849Z,15.63
2023-03-13T04:40:20.162Z,15.68
2023-03-13T04:42:49.527Z,15.45
2023-03-13T04:45:18.929Z,15.25
2023-03-13T04:47:50.787Z,14.85
2023-03-13T04:50:20.222Z,15.50
2023-03-13T04:52:49.734Z,14.82
2023-03-13T04:55:19.577Z,18.02
2023-03-13T04:57:48.773Z,14.43
2023-03-13T05:00:18.513Z,19.98
2023-03-13T05:02:47.743Z,14.57
2023-03-13T05:05:17.061Z,15.57
2023-03-13T05:07:46.245Z,17.23
2023-03-13T05:10:15.938Z,16.00
2023-03-13T05:12:45.257Z,15.50
2023-03-13T05:15:14.553Z,14.70
2023-03-13T05:17:43.762Z,17.45
2023-03-13T05:20:13.747Z,15.45
2023-03-13T05:22:43.048Z,15.85
2023-03-13T05:25:13.145Z,15.65
2023-03-13T05:27:42.337Z,14.48
2023-03-13T05:30:12.624Z,14.73
2023-03-13T05:32:41.938Z,13.60
2023-03-13T05:35:11.326Z,14.98
2023-03-13T05:37:41.419Z,16.23
2023-03-13T05:40:12.085Z,14.85
2023-03-13T05:42:41.952Z,15.75
2023-03-13T05:45:12.218Z,15.40
2023-03-13T05:47:42.653Z,15.43
2023-03-13T05:50:12.585Z,15.07
2023-03-13T05:52:43.760Z,14.57
2023-03-13T05:55:13.192Z,15.77
2023-03-13T05:57:46.559Z,15.70
2023-03-13T06:00:18.502Z,15.43
2023-03-13T06:02:47.759Z,16.17
2023-03-13T06:05:17.105Z,14.48
2023-03-13T06:07:46.366Z,19.08
2023-03-13T06:10:15.579Z,14.40
2023-03-13T06:12:44.813Z,14.90
2023-03-13T06:15:14.182Z,15.43
2023-03-13T06:17:43.394Z,14.20
2023-03-13T06:20:13.512Z,14.23
2023-03-13T06:22:43.546Z,14.88
2023-03-13T06:25:13.053Z,14.60
2023-03-13T06:27:43.573Z,14.90
2023-03-13T06:30:13.714Z,14.43
2023-03-13T06:32:43.095Z,14.98
2023-03-13T06:35:12.407Z,14.88
2023-03-13T06:37:41.599Z,14.48
2023-03-13T06:40:12.287Z,13.85
2023-03-13T06:42:41.577Z,13.43
2023-03-13T06:45:12.466Z,13.98
2023-03-13T06:47:41.722Z,14.15
2023-03-13T06:50:11.960Z,13.20
2023-03-13T06:52:44.245Z,13.90
2023-03-13T06:55:14.172Z,14.45
2023-03-13T06:57:43.576Z,15.20
2023-03-13T07:00:14.070Z,14.15
2023-03-13T07:02:43.363Z,13.85
2023-03-13T07:05:12.643Z,14.55
2023-03-13T07:07:45.240Z,12.93
2023-03-13T07:10:15.227Z,13.52
2023-03-13T07:12:45.468Z,13.73
2023-03-13T07:15:14.718Z,13.88
2023-03-13T07:17:44.004Z,13.90
2023-03-13T07:20:15.658Z,13.20
2023-03-13T07:22:46.061Z,13.27
2023-03-13T07:25:15.246Z,13.68
2023-03-13T07:27:44.449Z,14.45
2023-03-13T07:30:14.500Z,13.80
2023-03-13T07:32:43.679Z,13.70
2023-03-13T07:35:12.980Z,14.80
2023-03-13T07:37:42.532Z,12.93
2023-03-13T07:40:13.536Z,14.77
2023-03-13T07:42:43.508Z,14.60
2023-03-13T07:45:13.376Z,13.98
2023-03-13T07:47:45.481Z,14.00
2023-03-13T07:50:14.909Z,13.95
2023-03-13T07:52:44.245Z,13.38
2023-03-13T07:55:13.450Z,13.38
2023-03-13T07:57:42.685Z,12.93
2023-03-13T08:00:17.451Z,13.68
2023-03-13T08:02:46.767Z,13.85
2023-03-13T08:05:16.094Z,13.57
2023-03-13T08:07:47.107Z,13.23
2023-03-13T08:10:16.436Z,13.60
2023-03-13T08:12:45.582Z,13.85
2023-03-13T08:15:14.782Z,13.85
2023-03-13T08:17:44.028Z,13.38
2023-03-13T08:20:13.865Z,12.88
2023-03-13T08:22:44.480Z,13.10
2023-03-13T08:25:14.815Z,13.40
2023-03-13T08:27:44.137Z,13.43
2023-03-13T08:30:14.192Z,13.63
2023-03-13T08:32:43.757Z,13.75
2023-03-13T08:35:12.951Z,13.35
2023-03-13T08:37:42.214Z,13.95
2023-03-13T08:40:12.488Z,14.90
2023-03-13T08:42:41.889Z,13.80
2023-03-13T08:45:11.810Z,14.65
2023-03-13T08:47:41.096Z,13.75
2023-03-13T08:50:11.018Z,13.73
2023-03-13T08:52:40.223Z,14.25
2023-03-13T08:55:12.752Z,13.50
2023-03-13T08:57:41.999Z,14.48
2023-03-13T09:00:12.417Z,13.95
2023-03-13T09:02:41.778Z,13.73
2023-03-13T09:05:11.281Z,13.85
2023-03-13T09:07:40.898Z,14.07
2023-03-13T09:10:10.971Z,14.18
2023-03-13T09:12:40.263Z,14.27
2023-03-13T09:15:10.623Z,14.07
2023-03-13T09:17:39.874Z,14.32
2023-03-13T09:20:10.493Z,14.15
2023-03-13T09:22:39.731Z,14.30
2023-03-13T09:25:09.467Z,14.48
2023-03-13T09:27:38.916Z,14.65
2023-03-13T09:30:09.170Z,15.85
2023-03-13T09:32:38.294Z,14.68
2023-03-13T09:35:08.051Z,14.93
2023-03-13T09:37:37.300Z,16.40
2023-03-13T09:40:09.481Z,14.65
2023-03-13T09:42:51.116Z,15.88
2023-03-13T09:45:35.399Z,13.98
2023-03-13T09:48:35.327Z,15.48
2023-03-13T09:51:27.613Z,14.35
2023-03-13T09:54:43.532Z,14.93
2023-03-13T09:57:35.607Z,14.50
2023-03-13T10:00:20.886Z,14.73
2023-03-13T10:03:41.261Z,14.52
2023-03-13T10:06:22.265Z,15.43
2023-03-13T10:08:52.075Z,16.00
2023-03-13T10:11:44.569Z,14.85
2023-03-13T10:14:31.802Z,14.98
2023-03-13T10:17:14.678Z,15.52
2023-03-13T10:19:44.739Z,14.27
2023-03-13T10:22:27.565Z,12.88
2023-03-13T10:25:26.658Z,12.57
2023-03-13T10:27:56.512Z,12.20
2023-03-13T10:30:31.197Z,12.18
2023-03-13T10:33:28.117Z,12.27
2023-03-13T10:36:13.564Z,11.65
2023-03-13T10:38:55.695Z,12.23
2023-03-13T10:41:39.452Z,12.20
2023-03-13T10:44:21.672Z,13.18
2023-03-13T10:46:52.899Z,12.70
2023-03-13T10:49:25.613Z,11.65
2023-03-13T10:51:57.217Z,11.90
2023-03-13T10:54:38.362Z,12.55
2023-03-13T10:57:31.651Z,11.20
2023-03-13T11:00:04.072Z,11.82
2023-03-13T11:02:40.276Z,11.02
2023-03-13T11:05:43.561Z,11.48
2023-03-13T11:08:28.482Z,10.68
2023-03-13T11:11:16.946Z,11.40
2023-03-13T11:13:47.164Z,9.57
2023-03-13T11:16:33.132Z,9.63
2023-03-13T11:19:44.687Z,9.05
2023-03-13T11:22:44.177Z,9.20
2023-03-13T11:25:24.116Z,9.50
2023-03-13T11:28:49.526Z,9.23
2023-03-13T11:31:40.533Z,9.05
2023-03-13T11:34:38.597Z,7.72
2023-03-13T11:40:36.960Z,7.40
2023-03-13T11:43:25.516Z,7.25
2023-03-13T11:46:16.424Z,7.72
2023-03-13T11:49:17.304Z,6.35
2023-03-13T11:52:14.037Z,7.68
2023-03-13T11:55:39.194Z,7.10
2023-03-13T11:58:48.521Z,6.43
2023-03-13T12:04:38.167Z,6.97
2023-03-13T12:07:11.688Z,6.18
2023-03-13T12:10:02.671Z,6.50
2023-03-13T12:13:27.760Z,6.13
2023-03-13T12:16:12.596Z,6.57
2023-03-13T12:18:46.072Z,5.68
2023-03-13T12:21:54.630Z,5.10
2023-03-13T12:24:42.870Z,4.97
2023-03-13T12:27:16.860Z,5.90
2023-03-13T12:30:22.392Z,4.95
2023-03-13T12:33:17.174Z,5.78
2023-03-13T12:36:07.162Z,13.40
2023-03-13T12:39:16.090Z,5.25
2023-03-13T12:42:09.002Z,5.13
2023-03-13T12:44:42.585Z,5.03
2023-03-13T12:47:43.975Z,5.50
2023-03-13T12:50:34.003Z,4.93
2023-03-13T12:54:04.494Z,5.32
2023-03-13T12:56:45.005Z,6.20
2023-03-13T12:59:22.333Z,5.18
2023-03-13T13:01:57.086Z,5.05
2023-03-13T13:04:33.816Z,4.78
2023-03-13T13:07:08.406Z,5.60
2023-03-13T13:10:19.104Z,5.22
2023-03-13T13:13:15.022Z,5.30
2023-03-13T13:16:17.601Z,5.00
2023-03-13T13:18:46.856Z,5.30
2023-03-13T13:21:27.405Z,5.43
2023-03-13T13:24:35.262Z,4.63
2023-03-13T13:27:04.545Z,5.47
2023-03-13T13:29:57.850Z,9.20
2023-03-13T13:33:18.074Z,5.97
2023-03-13T13:36:08.411Z,5.90
2023-03-13T13:38:43.495Z,7.00
2023-03-13T13:41:12.744Z,6.25
2023-03-13T13:43:48.344Z,5.70
2023-03-13T13:46:35.892Z,6.40
2023-03-13T13:49:08.607Z,6.15
2023-03-13T13:51:40.353Z,6.75
2023-03-13T13:54:55.980Z,6.57
2023-03-13T13:57:47.209Z,5.63
2023-03-13T14:00:28.485Z,6.25
2023-03-13T14:02:59.145Z,6.97
2023-03-13T14:05:33.966Z,8.55
2023-03-13T14:08:15.503Z,7.55
2023-03-13T14:11:06.413Z,7.32
2023-03-13T14:13:35.700Z,8.13
2023-03-13T14:16:27.348Z,7.63
2023-03-13T14:18:57.230Z,6.55
2023-03-13T14:21:28.267Z,7.55
2023-03-13T14:23:58.451Z,7.63
2023-03-13T14:26:31.319Z,8.63
2023-03-13T14:29:08.060Z,7.70
2023-03-13T14:31:40.945Z,7.35
2023-03-13T14:34:14.384Z,7.40
2023-03-13T14:37:16.825Z,8.77
2023-03-13T14:39:56.987Z,8.55
2023-03-13T14:42:26.391Z,7.57
2023-03-13T14:44:59.317Z,8.15
2023-03-13T14:47:34.533Z,7.68
2023-03-13T14:50:12.901Z,8.23
2023-03-13T14:53:12.291Z,7.45
2023-03-13T14:55:48.359Z,7.88
2023-03-13T14:58:31.806Z,9.40
2023-03-13T15:01:24.746Z,8.35
2023-03-13T15:03:54.256Z,8.05
2023-03-13T15:06:26.331Z,8.40
2023-03-13T15:09:24.229Z,7.85
2023-03-13T15:12:01.448Z,8.18
2023-03-13T15:14:43.701Z,7.80
2023-03-13T15:17:28.967Z,9.73
2023-03-13T15:20:00.500Z,8.98
2023-03-13T15:22:37.446Z,7.13
2023-03-13T15:25:21.595Z,7.80
2023-03-13T15:28:01.648Z,8.27
2023-03-13T15:30:31.157Z,9.82
2023-03-13T15:33:01.861Z,8.05
2023-03-13T15:35:34.387Z,7.38
2023-03-13T15:38:04.332Z,7.30
2023-03-13T15:40:34.007Z,8.07
2023-03-13T15:43:03.225Z,7.10
2023-03-13T15:45:37.495Z,7.15
2023-03-13T15:48:23.130Z,6.57
2023-03-13T15:50:54.366Z,7.28
2023-03-13T15:53:30.977Z,7.18
2023-03-13T15:56:04.045Z,6.93
2023-03-13T15:58:36.109Z,6.93
2023-03-13T16:01:08.070Z,7.45
2023-03-13T16:03:37.521Z,7.93
2023-03-13T16:06:22.522Z,7.50
2023-03-13T16:08:51.646Z,7.50
2023-03-13T16:11:20.891Z,7.13
2023-03-13T16:13:50.028Z,7.40
2023-03-13T16:16:30.432Z,7.72
2023-03-13T16:19:01.628Z,8.50
2023-03-13T16:21:37.137Z,8.20
2023-03-13T16:24:08.553Z,8.77
2023-03-13T16:26:37.779Z,10.13
2023-03-13T16:29:07.053Z,8.15
2023-03-13T16:31:39.235Z,8.65
2023-03-13T16:34:09.225Z,7.93
2023-03-13T16:36:38.897Z,8.45
2023-03-13T16:39:14.637Z,8.68
2023-03-13T16:41:43.994Z,8.23
2023-03-13T16:44:13.185Z,8.93
2023-03-13T16:47:02.789Z,8.23
2023-03-13T16:49:33.873Z,9.25
2023-03-13T16:52:07.835Z,9.02
2023-03-13T16:54:37.071Z,10.85
2023-03-13T16:57:15.229Z,9.93
2023-03-13T16:59:45.067Z,9.80
2023-03-13T17:02:18.492Z,9.45
2023-03-13T17:04:49.470Z,9.48
2023-03-13T17:07:28.723Z,11.38
2023-03-13T17:09:58.308Z,9.95
2023-03-13T17:12:27.639Z,9.55
2023-03-13T17:14:59.681Z,8.85
2023-03-13T17:17:32.719Z,8.35
2023-03-13T17:20:05.195Z,8.13
2023-03-13T17:22:35.558Z,8.02
2023-03-13T17:25:04.910Z,8.55
2023-03-13T17:27:34.300Z,9.88
2023-03-13T17:30:03.685Z,9.10
2023-03-13T17:32:32.962Z,11.65
2023-03-13T17:35:02.257Z,12.98
2023-03-13T17:37:36.486Z,10.88
2023-03-13T17:40:33.527Z,10.32
2023-03-13T17:43:02.710Z,12.55
2023-03-13T17:45:39.001Z,10.38
2023-03-13T17:48:14.733Z,9.73
2023-03-13T17:50:44.216Z,11.07
2023-03-13T17:53:13.402Z,9.40
2023-03-13T17:55:42.640Z,9.45
2023-03-13T17:58:12.128Z,9.98
2023-03-13T18:00:46.014Z,11.10
2023-03-13T18:03:15.300Z,9.07
2023-03-13T18:05:44.952Z,9.32
2023-03-13T18:08:14.239Z,8.90
2023-03-13T18:10:43.480Z,9.32
2023-03-13T18:13:12.770Z,9.98
2023-03-13T18:15:41.998Z,9.50
2023-03-13T18:18:18.469Z,10.48
2023-03-13T18:20:48.336Z,9.02
2023-03-13T18:23:18.019Z,10.75
2023-03-13T18:25:47.576Z,10.75
2023-03-13T18:28:16.671Z,9.73
2023-03-13T18:30:45.811Z,9.85
2023-03-13T18:33:15.489Z,9.95
2023-03-13T18:35:47.605Z,10.20
2023-03-13T18:38:16.906Z,10.07
2023-03-13T18:40:46.180Z,9.32
2023-03-13T18:43:15.293Z,10.15
2023-03-13T18:45:44.664Z,8.88
2023-03-13T18:48:16.789Z,9.50
2023-03-13T18:50:46.063Z,9.90
2023-03-13T18:53:15.195Z,9.45
2023-03-13T18:55:44.464Z,9.73
2023-03-13T18:58:14.166Z,8.70
2023-03-13T19:00:43.484Z,8.57
2023-03-13T19:03:12.984Z,9.88
2023-03-13T19:05:42.207Z,9.10
2023-03-13T19:08:12.116Z,10.20
2023-03-13T19:10:51.385Z,10.63
2023-03-13T19:13:20.526Z,10.18
2023-03-13T19:15:49.761Z,10.43
2023-03-13T19:18:18.981Z,10.02
2023-03-13T19:20:48.080Z,9.05
2023-03-13T19:23:17.320Z,10.43
2023-03-13T19:25:46.574Z,9.85
2023-03-13T19:28:15.876Z,10.63
2023-03-13T19:30:45.557Z,10.18
2023-03-13T19:33:14.873Z,10.10
2023-03-13T19:35:44.137Z,9.55
2023-03-13T19:38:14.470Z,10.30
2023-03-13T19:40:43.796Z,9.68
2023-03-13T19:43:13.030Z,12.55
2023-03-13T19:45:42.413Z,10.07
2023-03-13T19:48:12.393Z,9.73
2023-03-13T19:50:41.635Z,11.13
2023-03-13T19:53:10.853Z,9.73
2023-03-13T19:55:40.101Z,11.70
2023-03-13T19:58:09.692Z,11.15
2023-03-13T20:00:38.979Z,10.40
2023-03-13T20:03:08.332Z,10.65
2023-03-13T20:05:37.725Z,10.55
2023-03-13T20:08:07.029Z,9.40
2023-03-13T20:10:36.333Z,9.98
2023-03-13T20:13:05.588Z,11.00
2023-03-13T20:15:34.891Z,11.88
2023-03-13T20:18:04.228Z,11.38
2023-03-13T20:20:33.468Z,10.80
2023-03-13T20:23:04.249Z,10.35
2023-03-13T20:25:33.374Z,11.23
2023-03-13T20:28:02.516Z,10.98
2023-03-13T20:30:31.681Z,11.00
2023-03-13T20:33:01.092Z,10.63
2023-03-13T20:35:30.764Z,11.77
2023-03-13T20:38:01.846Z,11.93
2023-03-13T20:40:31.059Z,12.15
2023-03-13T20:43:01.181Z,12.35
2023-03-13T20:45:33.630Z,12.95
2023-03-13T20:48:02.765Z,12.25
2023-03-13T20:50:31.987Z,11.77
2023-03-13T20:53:01.139Z,13.70
2023-03-13T20:55:32.881Z,13.65
2023-03-13T20:58:02.383Z,12.82
2023-03-13T21:00:31.500Z,13.25
2023-03-13T21:03:01.096Z,14.30
2023-03-13T21:05:30.571Z,11.88
2023-03-13T21:07:59.788Z,12.65
2023-03-13T21:10:28.917Z,11.77
2023-03-13T21:12:58.096Z,11.05
2023-03-13T21:15:27.265Z,10.85
2023-03-13T21:17:57.426Z,11.45
2023-03-13T21:20:27.491Z,11.07
2023-03-13T21:22:57.258Z,11.13
2023-03-13T21:25:26.896Z,11.55
2023-03-13T21:27:56.071Z,12.38
2023-03-13T21:30:25.369Z,11.68
2023-03-13T21:32:55.295Z,11.00
2023-03-13T21:35:25.007Z,11.50
2023-03-13T21:37:54.392Z,12.50
2023-03-13T21:40:23.659Z,13.43
2023-03-13T21:42:52.961Z,12.73
2023-03-13T21:45:22.178Z,13.57
2023-03-13T21:47:51.436Z,13.75
2023-03-13T21:52:54.916Z,13.75
2023-03-13T21:55:24.155Z,12.07
2023-03-13T21:57:53.509Z,14.88
2023-03-13T22:00:23.308Z,12.52
2023-03-13T22:02:52.639Z,13.27
2023-03-13T22:05:21.894Z,13.65
2023-03-13T22:07:51.088Z,11.48
2023-03-13T22:10:20.447Z,12.93
2023-03-13T22:12:49.617Z,12.75
2023-03-13T22:15:19.658Z,12.65
2023-03-13T22:17:48.896Z,13.65
2023-03-13T22:20:18.191Z,13.35
2023-03-13T22:22:47.535Z,13.65
2023-03-13T22:25:17.819Z,12.10
2023-03-13T22:27:47.107Z,15.18
2023-03-13T22:30:16.992Z,12.75
2023-03-13T22:32:46.292Z,13.40
2023-03-13T22:35:15.706Z,14.23
2023-03-13T22:37:44.980Z,12.20
2023-03-13T22:40:14.554Z,12.05
2023-03-13T22:42:43.802Z,13.02
2023-03-13T22:45:13.623Z,12.63
2023-03-13T22:47:42.888Z,13.75
2023-03-13T22:50:14.285Z,13.10
2023-03-13T22:52:44.423Z,13.60
2023-03-13T22:55:13.672Z,14.18
2023-03-13T22:57:42.861Z,14.43
2023-03-13T23:00:13.129Z,13.32
2023-03-13T23:02:42.332Z,14.18
2023-03-13T23:05:12.248Z,13.18
2023-03-13T23:07:41.925Z,13.25
2023-03-13T23:10:13.714Z,14.02
2023-03-13T23:12:43.021Z,14.23
2023-03-13T23:15:13.512Z,14.63
2023-03-13T23:17:42.827Z,14.85
2023-03-13T23:20:14.216Z,14.88
2023-03-13T23:22:46.420Z,15.30
2023-03-13T23:25:16.263Z,17.40
2023-03-13T23:27:45.457Z,15.52
2023-03-13T23:30:17.596Z,16.48
2023-03-13T23:32:49.486Z,16.67
2023-03-13T23:35:19.236Z,16.33
2023-03-13T23:37:55.330Z,17.45
2023-03-13T23:40:25.680Z,21.88
2023-03-13T23:42:54.896Z,23.40
2023-03-13T23:45:24.118Z,24.60
2023-03-13T23:47:55.593Z,24.65
2023-03-13T23:50:25.496Z,18.83
2023-03-13T23:52:56.498Z,16.92
2023-03-13T23:55:25.752Z,26.90
2023-03-13T23:57:55.058Z,18.92
